Time;durP1;ratioP1;P1;durP2;ratioP2;P2;SDS_P1;SDS_P2;PMS_P1;PMS_P2;Temp;Humidity;BMP_temperature;BMP_pressure;BME280_temperature;BME280_humidity;BME280_pressure;Samples;Min_cycle;Max_cycle;Signal;HPM_P1;HPM_P2
2021/12/16 00:01:49;;;;;;;17.08;10.05;;;8.60;77.50;;;;;;4978901;28;20129;-75
2021/12/16 00:09:28;;;;;;;16.33;9.23;;;8.50;77.50;;;;;;4976149;28;20089;-75
2021/12/16 00:33:33;;;;;;;18.90;11.82;;;8.40;77.90;;;;;;4978337;28;20042;-76
2021/12/16 00:36:01;;;;;;;21.63;10.32;;;8.40;77.90;;;;;;4987503;28;20043;-76
2021/12/16 00:38:26;;;;;;;17.10;10.57;;;8.30;77.90;;;;;;4983763;28;20034;-76
2021/12/16 00:40:54;;;;;;;20.85;12.07;;;8.40;78.00;;;;;;4979535;28;20080;-76
2021/12/16 00:43:33;;;;;;;15.93;10.02;;;8.40;78.10;;;;;;4994560;28;20088;-76
2021/12/16 00:54:11;;;;;;;23.77;12.88;;;8.30;78.00;;;;;;4937515;29;20051;-76
2021/12/16 00:56:39;;;;;;;19.17;12.10;;;8.30;78.00;;;;;;4919770;29;20056;-76
2021/12/16 00:59:07;;;;;;;20.13;12.82;;;8.30;78.10;;;;;;4937194;29;20067;-76
2021/12/16 01:34:40;;;;;;;22.50;13.02;;;8.20;78.50;;;;;;4992266;28;20129;-76
2021/12/16 01:50:25;;;;;;;27.98;15.07;;;8.20;78.80;;;;;;4984398;28;20038;-76
2021/12/16 01:55:36;;;;;;;25.95;15.00;;;8.20;78.90;;;;;;4986619;28;20126;-76
2021/12/16 01:58:14;;;;;;;24.05;13.85;;;8.20;79.00;;;;;;4992289;28;20039;-76
2021/12/16 02:01:08;;;;;;;26.30;14.57;;;8.20;79.00;;;;;;4987283;28;20049;-76
2021/12/16 02:03:44;;;;;;;28.02;15.48;;;8.20;79.10;;;;;;4972196;28;20486;-76
2021/12/16 02:08:46;;;;;;;24.90;15.98;;;8.20;79.20;;;;;;4977916;28;20078;-76
2021/12/16 02:33:14;;;;;;;27.98;15.35;;;8.30;79.80;;;;;;4915254;29;20058;-76
2021/12/16 02:35:45;;;;;;;26.77;15.48;;;8.30;80.00;;;;;;4916229;29;20100;-76
2021/12/16 02:38:16;;;;;;;24.23;14.70;;;8.30;80.00;;;;;;4889822;29;20052;-76
2021/12/16 02:40:43;;;;;;;24.50;15.20;;;8.30;80.00;;;;;;4891486;29;20468;-75
2021/12/16 02:48:39;;;;;;;24.63;15.57;;;8.30;80.20;;;;;;4915921;29;20040;-76
2021/12/16 02:51:09;;;;;;;21.20;13.68;;;8.30;80.20;;;;;;4915962;29;20056;-76
2021/12/16 02:53:38;;;;;;;28.35;16.48;;;8.40;80.30;;;;;;4914409;29;20055;-76
2021/12/16 02:56:04;;;;;;;21.05;14.38;;;8.40;80.30;;;;;;4915698;29;20047;-76
2021/12/16 02:58:31;;;;;;;22.27;14.38;;;8.40;80.30;;;;;;4914956;29;20488;-76
2021/12/16 03:01:06;;;;;;;20.77;13.23;;;8.40;80.30;;;;;;4915867;29;20072;-76
2021/12/16 03:03:35;;;;;;;26.15;15.70;;;8.50;80.50;;;;;;4914808;29;20519;-75
2021/12/16 03:06:02;;;;;;;17.83;13.45;;;8.40;80.30;;;;;;4983102;28;20520;-76
2021/12/16 03:08:29;;;;;;;25.95;14.25;;;8.50;80.80;;;;;;4977241;28;20134;-76
2021/12/16 03:13:49;;;;;;;22.77;14.57;;;8.50;80.40;;;;;;4985174;28;20055;-76
2021/12/16 03:16:30;;;;;;;20.10;13.63;;;8.50;80.40;;;;;;4982905;28;20042;-76
2021/12/16 03:21:29;;;;;;;21.40;14.85;;;8.50;80.40;;;;;;4976813;28;20125;-76
2021/12/16 03:29:58;;;;;;;31.88;17.17;;;8.50;80.20;;;;;;4988684;28;20122;-76
2021/12/16 03:35:13;;;;;;;28.40;16.55;;;8.60;80.30;;;;;;4979247;28;20101;-74
2021/12/16 03:37:38;;;;;;;;;;;8.60;80.30;;;;;;4988595;28;20081;-76
2021/12/16 03:40:12;;;;;;;25.27;15.80;;;8.60;80.00;;;;;;4976978;28;19922;-77
2021/12/16 03:43:00;;;;;;;22.17;17.10;;;8.60;80.30;;;;;;4975897;28;20066;-76
2021/12/16 03:48:44;;;;;;;24.25;14.38;;;8.60;80.10;;;;;;4991895;28;20054;-76
2021/12/16 03:51:14;;;;;;;26.35;16.05;;;8.60;80.20;;;;;;4975168;28;20129;-76
2021/12/16 03:53:43;;;;;;;28.55;16.98;;;8.60;80.20;;;;;;4989477;28;20422;-75
2021/12/16 03:56:10;;;;;;;24.83;15.20;;;8.60;80.20;;;;;;4979349;28;20125;-76
2021/12/16 03:58:36;;;;;;;25.05;17.40;;;8.60;80.10;;;;;;4975786;28;20475;-75
2021/12/16 04:01:06;;;;;;;24.65;15.65;;;8.70;80.20;;;;;;4976159;28;20042;-76
2021/12/16 04:03:32;;;;;;;22.70;15.82;;;8.70;80.20;;;;;;4976096;28;20042;-76
2021/12/16 04:05:58;;;;;;;29.80;17.10;;;8.60;80.20;;;;;;4981592;28;20082;-76
2021/12/16 04:08:24;;;;;;;21.42;15.95;;;8.70;80.20;;;;;;4980642;28;20043;-75
2021/12/16 04:11:04;;;;;;;25.85;17.30;;;8.70;80.20;;;;;;4989494;28;20536;-76
2021/12/16 04:13:30;;;;;;;21.40;15.00;;;8.70;80.20;;;;;;4999423;28;20050;-76
2021/12/16 04:15:57;;;;;;;27.17;17.20;;;8.70;80.20;;;;;;4965524;28;20042;-76
2021/12/16 04:18:22;;;;;;;27.95;16.63;;;8.70;80.20;;;;;;4979948;28;20094;-76
2021/12/16 04:20:48;;;;;;;23.98;15.48;;;8.70;80.20;;;;;;4978349;28;20086;-76
2021/12/16 04:23:18;;;;;;;28.38;16.95;;;8.70;80.20;;;;;;5000663;28;20097;-76
2021/12/16 04:25:45;;;;;;;27.60;17.92;;;8.70;80.20;;;;;;4991341;28;20046;-76
2021/12/16 04:28:19;;;;;;;25.83;16.67;;;8.70;80.20;;;;;;4999998;28;20537;-76
2021/12/16 04:30:46;;;;;;;22.58;16.60;;;8.80;80.30;;;;;;4984443;28;20053;-76
2021/12/16 04:33:12;;;;;;;22.88;16.13;;;8.70;80.20;;;;;;4963770;28;20402;-76
2021/12/16 04:35:39;;;;;;;22.23;15.32;;;8.70;80.20;;;;;;4986869;28;20076;-76
2021/12/16 04:38:07;;;;;;;21.15;15.05;;;8.80;80.30;;;;;;4983280;28;20072;-76
2021/12/16 04:40:35;;;;;;;27.92;16.67;;;8.80;80.30;;;;;;4987182;28;20197;-76
2021/12/16 04:43:03;;;;;;;23.83;15.35;;;8.80;80.30;;;;;;4981381;28;20035;-75
2021/12/16 04:45:31;;;;;;;28.73;16.67;;;8.80;80.30;;;;;;4971106;28;20177;-76
2021/12/16 04:47:56;;;;;;;24.50;17.48;;;8.80;80.20;;;;;;4979848;28;20050;-75
2021/12/16 04:50:23;;;;;;;26.65;16.13;;;8.80;80.20;;;;;;4988717;28;20042;-75
2021/12/16 04:52:50;;;;;;;32.20;19.33;;;8.80;80.20;;;;;;4981918;28;20073;-76
2021/12/16 04:55:19;;;;;;;23.88;15.40;;;8.80;80.20;;;;;;4992002;28;20525;-76
2021/12/16 04:57:45;;;;;;;24.90;17.42;;;8.80;80.20;;;;;;4985383;28;20046;-75
2021/12/16 05:00:17;;;;;;;29.70;18.52;;;8.80;80.20;;;;;;4981412;28;20051;-75
2021/12/16 05:02:44;;;;;;;29.48;17.92;;;8.80;80.20;;;;;;4982090;28;20077;-76
2021/12/16 05:05:10;;;;;;;27.30;17.55;;;8.80;80.20;;;;;;4988956;28;20039;-76
2021/12/16 05:07:36;;;;;;;26.48;18.42;;;8.90;80.20;;;;;;4993602;28;20496;-76
2021/12/16 05:10:06;;;;;;;27.80;17.88;;;8.80;80.20;;;;;;4972817;28;20125;-76
2021/12/16 05:12:37;;;;;;;21.80;15.27;;;8.90;80.30;;;;;;4992003;28;20407;-76
2021/12/16 05:15:08;;;;;;;29.15;17.50;;;8.80;80.20;;;;;;4998766;28;20445;-76
2021/12/16 05:17:41;;;;;;;24.15;16.45;;;8.80;80.30;;;;;;4984620;28;20130;-76
2021/12/16 05:20:10;;;;;;;21.48;16.08;;;8.90;80.30;;;;;;4984015;28;20046;-76
2021/12/16 05:25:45;;;;;;;27.98;18.45;;;8.90;80.30;;;;;;4987606;28;20050;-75
2021/12/16 05:28:11;;;;;;;28.25;16.70;;;8.90;80.30;;;;;;4977590;28;20199;-76
2021/12/16 05:30:37;;;;;;;23.63;16.38;;;8.90;80.30;;;;;;4985760;28;20054;-76
2021/12/16 05:33:03;;;;;;;23.52;16.42;;;8.90;80.30;;;;;;4993335;28;20121;-76
2021/12/16 05:35:30;;;;;;;27.42;17.75;;;8.90;80.20;;;;;;4978540;28;20117;-76
2021/12/16 05:37:56;;;;;;;26.42;17.13;;;8.90;80.20;;;;;;4988112;28;20042;-76
2021/12/16 05:40:24;;;;;;;23.10;15.75;;;8.90;80.10;;;;;;4996277;28;20065;-76
2021/12/16 05:42:55;;;;;;;23.05;16.17;;;8.90;80.10;;;;;;4995507;28;20050;-76
2021/12/16 05:45:23;;;;;;;21.00;16.05;;;8.90;80.00;;;;;;4992878;28;20046;-76
2021/12/16 05:47:50;;;;;;;23.90;17.33;;;8.90;79.90;;;;;;4982616;28;20043;-76
2021/12/16 05:50:16;;;;;;;25.67;18.02;;;8.90;79.80;;;;;;4979698;28;20399;-75
2021/12/16 05:52:42;;;;;;;23.63;16.90;;;8.90;79.80;;;;;;4994562;28;20042;-75
2021/12/16 05:55:10;;;;;;;21.90;15.48;;;8.90;79.70;;;;;;4978461;28;20035;-76
2021/12/16 05:57:37;;;;;;;20.90;15.57;;;8.90;80.10;;;;;;4989087;28;20065;-77
2021/12/16 06:00:08;;;;;;;22.02;16.10;;;8.80;79.60;;;;;;4994166;28;20092;-76
2021/12/16 06:02:34;;;;;;;21.77;15.65;;;8.80;79.60;;;;;;4977490;28;20051;-78
2021/12/16 06:05:03;;;;;;;25.38;15.25;;;8.80;79.60;;;;;;4975781;28;20050;-73
2021/12/16 06:07:29;;;;;;;21.63;15.50;;;8.80;79.50;;;;;;4965793;28;20426;-74
2021/12/16 06:09:55;;;;;;;22.42;16.15;;;8.80;79.50;;;;;;4970704;28;20042;-74
2021/12/16 06:12:23;;;;;;;19.73;14.60;;;8.80;79.50;;;;;;4993612;28;20063;-74
2021/12/16 06:28:04;;;;;;;24.35;15.95;;;8.80;79.30;;;;;;4985594;28;20054;-74
2021/12/16 06:30:36;;;;;;;24.95;16.30;;;8.70;79.20;;;;;;4983076;28;20393;-74
2021/12/16 06:33:05;;;;;;;26.85;16.77;;;8.80;79.20;;;;;;4979699;28;20080;-74
2021/12/16 06:35:31;;;;;;;24.77;17.00;;;8.70;79.10;;;;;;4979052;28;20085;-74
2021/12/16 06:37:56;;;;;;;23.63;16.33;;;8.70;79.10;;;;;;4993131;28;20034;-74
2021/12/16 06:40:22;;;;;;;23.42;17.33;;;8.70;79.10;;;;;;4982909;28;20030;-74
2021/12/16 06:42:49;;;;;;;25.25;16.33;;;8.70;79.20;;;;;;4977587;28;20483;-74
2021/12/16 06:45:25;;;;;;;28.15;18.95;;;8.70;79.30;;;;;;4965194;28;20054;-74
2021/12/16 06:47:56;;;;;;;22.23;16.25;;;8.70;79.30;;;;;;4991074;28;20133;-74
2021/12/16 06:50:51;;;;;;;22.65;16.23;;;8.70;79.40;;;;;;4993512;28;20060;-74
2021/12/16 06:53:14;;;;;;;22.25;15.85;;;8.70;79.40;;;;;;4987769;28;20046;-73
2021/12/16 06:55:46;;;;;;;22.30;15.98;;;8.80;79.50;;;;;;4980831;28;20050;-74
2021/12/16 06:58:27;;;;;;;23.17;16.15;;;8.70;79.40;;;;;;4992277;28;20046;-74
2021/12/16 07:01:04;;;;;;;22.63;15.85;;;8.70;79.40;;;;;;4979343;28;20466;-74
2021/12/16 07:03:43;;;;;;;19.27;14.82;;;8.80;79.40;;;;;;4968856;28;20057;-74
2021/12/16 07:06:09;;;;;;;20.92;15.20;;;8.70;79.30;;;;;;4994091;28;20054;-74
2021/12/16 07:08:35;;;;;;;21.40;13.88;;;8.70;79.30;;;;;;4987329;28;20510;-75
2021/12/16 07:11:01;;;;;;;21.02;14.98;;;8.70;79.20;;;;;;4977875;28;20047;-74
2021/12/16 07:13:36;;;;;;;19.15;14.00;;;8.70;79.20;;;;;;4976643;28;20074;-74
2021/12/16 07:16:03;;;;;;;;;;;8.70;79.20;;;;;;4986205;28;20051;-79
2021/12/16 07:18:29;;;;;;;19.35;13.40;;;8.60;78.80;;;;;;4991273;28;19972;-74
2021/12/16 07:20:54;;;;;;;18.77;14.23;;;8.60;79.10;;;;;;4979107;28;20038;-73
2021/12/16 07:23:20;;;;;;;19.25;15.77;;;8.60;79.00;;;;;;4976499;28;20067;-73
2021/12/16 07:25:46;;;;;;;18.77;13.80;;;8.60;78.90;;;;;;4975607;28;20134;-74
2021/12/16 07:28:12;;;;;;;20.83;13.48;;;8.60;78.80;;;;;;4976499;28;20078;-74
2021/12/16 07:30:41;;;;;;;24.58;15.60;;;8.60;78.80;;;;;;4957816;28;20402;-74
2021/12/16 07:33:07;;;;;;;22.10;15.30;;;8.60;78.80;;;;;;4976471;28;20047;-74
2021/12/16 07:35:34;;;;;;;22.35;15.52;;;8.50;78.60;;;;;;4975327;28;20039;-74
2021/12/16 07:38:00;;;;;;;22.05;14.98;;;8.50;78.60;;;;;;4984609;28;20042;-74
2021/12/16 07:40:27;;;;;;;23.75;16.42;;;8.50;78.50;;;;;;4977071;28;20053;-74
2021/12/16 07:45:27;;;;;;;19.95;13.77;;;8.50;78.50;;;;;;4994346;28;20054;-73
2021/12/16 07:47:53;;;;;;;18.88;14.02;;;8.50;78.50;;;;;;4987035;28;20074;-73
2021/12/16 07:50:19;;;;;;;18.13;14.25;;;8.50;78.40;;;;;;4958185;28;20486;-73
2021/12/16 07:52:45;;;;;;;21.13;15.20;;;8.50;78.50;;;;;;4976266;28;20046;-74
2021/12/16 07:55:12;;;;;;;20.42;14.52;;;8.40;78.40;;;;;;4983450;28;20398;-74
2021/12/16 07:57:39;;;;;;;16.15;12.70;;;8.40;78.50;;;;;;4989633;28;20050;-73
2021/12/16 08:00:10;;;;;;;17.25;12.55;;;8.40;78.50;;;;;;4975303;28;20067;-73
2021/12/16 08:02:37;;;;;;;15.70;12.85;;;8.40;78.50;;;;;;4976067;28;20042;-73
2021/12/16 08:05:04;;;;;;;15.27;12.18;;;8.40;78.50;;;;;;4974888;28;20106;-73
2021/12/16 08:07:30;;;;;;;18.02;12.30;;;8.40;78.50;;;;;;4976913;28;20038;-73
2021/12/16 08:09:56;;;;;;;15.50;12.07;;;8.30;78.50;;;;;;4957789;28;20529;-73
2021/12/16 08:12:21;;;;;;;20.67;11.82;;;8.30;78.50;;;;;;4984006;28;20049;-73
2021/12/16 08:14:48;;;;;;;14.85;11.93;;;8.40;78.60;;;;;;4974910;28;20553;-73
2021/12/16 08:17:15;;;;;;;13.90;11.40;;;8.30;78.50;;;;;;4993974;28;20517;-74
2021/12/16 08:19:42;;;;;;;40.83;12.65;;;8.30;78.60;;;;;;4993692;28;20047;-73
2021/12/16 08:22:08;;;;;;;12.43;10.70;;;8.30;78.60;;;;;;4994380;28;20390;-74
2021/12/16 08:24:34;;;;;;;13.45;10.75;;;8.20;78.40;;;;;;4980886;28;20050;-73
2021/12/16 08:27:00;;;;;;;13.88;10.75;;;8.30;78.40;;;;;;4983269;28;20133;-73
2021/12/16 08:29:26;;;;;;;13.88;11.07;;;8.30;78.40;;;;;;4980781;28;20117;-74
2021/12/16 08:31:53;;;;;;;12.38;10.95;;;8.30;78.40;;;;;;4974954;28;20093;-73
2021/12/16 08:34:19;;;;;;;12.15;10.82;;;8.30;78.50;;;;;;4974670;28;20051;-73
2021/12/16 08:36:46;;;;;;;17.92;11.38;;;8.30;78.50;;;;;;4957389;28;20082;-73
2021/12/16 08:39:12;;;;;;;12.25;10.90;;;8.20;78.40;;;;;;4984341;28;20059;-74
2021/12/16 08:41:42;;;;;;;13.65;10.82;;;8.20;78.40;;;;;;4986552;28;20043;-73
2021/12/16 08:44:08;;;;;;;12.15;10.40;;;8.30;78.60;;;;;;4975909;28;20054;-73
2021/12/16 08:46:41;;;;;;;12.70;11.32;;;8.30;78.60;;;;;;4974808;28;20409;-73
2021/12/16 08:49:07;;;;;;;14.38;10.45;;;8.30;78.60;;;;;;4981852;28;20129;-73
2021/12/16 08:51:36;;;;;;;13.45;10.70;;;8.20;78.50;;;;;;4994110;28;20070;-73
2021/12/16 08:54:02;;;;;;;12.20;10.55;;;8.30;78.60;;;;;;4992316;28;20038;-73
2021/12/16 08:56:28;;;;;;;12.20;10.90;;;8.30;78.60;;;;;;4987239;28;20045;-73
2021/12/16 08:58:55;;;;;;;13.25;10.32;;;8.30;78.60;;;;;;4982365;28;20093;-73
2021/12/16 09:01:26;;;;;;;14.25;10.80;;;8.30;78.70;;;;;;4997756;28;20458;-73
2021/12/16 09:03:53;;;;;;;12.25;10.20;;;8.30;78.80;;;;;;4995935;28;20039;-73
2021/12/16 09:06:19;;;;;;;13.63;11.25;;;8.30;78.70;;;;;;4997388;28;20461;-73
2021/12/16 09:08:45;;;;;;;13.50;10.70;;;8.30;78.80;;;;;;4994908;28;20093;-73
2021/12/16 09:11:14;;;;;;;14.10;11.35;;;8.30;78.80;;;;;;4977607;28;20055;-73
2021/12/16 09:13:41;;;;;;;13.57;11.02;;;8.30;78.90;;;;;;4977734;28;20475;-73
2021/12/16 09:16:13;;;;;;;14.98;11.23;;;8.30;79.00;;;;;;4978055;28;20085;-73
2021/12/16 09:18:41;;;;;;;12.85;11.00;;;8.30;79.00;;;;;;4960557;28;20126;-73
2021/12/16 09:21:11;;;;;;;12.45;10.52;;;8.30;79.00;;;;;;4996056;28;20474;-73
2021/12/16 09:23:39;;;;;;;14.30;12.05;;;8.40;79.10;;;;;;4997185;28;20038;-73
2021/12/16 09:26:05;;;;;;;14.48;10.82;;;8.40;79.10;;;;;;4978191;28;20493;-73
2021/12/16 09:28:31;;;;;;;14.43;11.75;;;8.40;79.10;;;;;;4996821;28;20077;-73
2021/12/16 09:30:57;;;;;;;13.30;10.95;;;8.40;79.10;;;;;;4996517;28;20042;-73
2021/12/16 09:33:25;;;;;;;12.15;10.38;;;8.50;79.10;;;;;;4996852;28;20478;-73
2021/12/16 09:35:54;;;;;;;12.68;11.23;;;8.40;79.00;;;;;;4982052;28;20047;-73
2021/12/16 09:38:21;;;;;;;14.68;10.75;;;8.50;79.10;;;;;;4977472;28;20050;-73
2021/12/16 09:40:52;;;;;;;12.18;10.63;;;8.50;79.10;;;;;;4992725;28;20050;-73
2021/12/16 09:43:21;;;;;;;13.75;11.25;;;8.50;79.10;;;;;;4997013;28;20459;-73
2021/12/16 09:45:47;;;;;;;12.70;10.75;;;8.50;79.10;;;;;;4995243;28;20062;-73
2021/12/16 09:48:13;;;;;;;15.65;10.80;;;8.50;79.10;;;;;;4996666;28;20034;-73
2021/12/16 09:50:38;;;;;;;13.35;11.48;;;8.50;79.10;;;;;;4983346;28;20051;-73
2021/12/16 09:53:05;;;;;;;14.00;11.82;;;8.50;79.10;;;;;;4959794;28;20090;-73
2021/12/16 09:55:34;;;;;;;12.48;10.75;;;8.60;79.30;;;;;;4994237;28;20046;-73
2021/12/16 09:58:00;;;;;;;14.88;12.15;;;8.60;79.30;;;;;;4979570;28;20410;-73
2021/12/16 10:00:29;;;;;;;14.25;11.55;;;8.60;79.30;;;;;;4987184;28;20141;-73
2021/12/16 10:02:56;;;;;;;13.60;11.38;;;8.60;79.40;;;;;;4996623;28;20035;-73
2021/12/16 10:05:23;;;;;;;14.95;11.57;;;8.60;79.40;;;;;;4993215;28;20053;-73
2021/12/16 10:07:48;;;;;;;13.75;10.85;;;8.70;79.50;;;;;;4996033;28;20111;-73
2021/12/16 10:10:24;;;;;;;13.32;10.85;;;8.70;79.50;;;;;;4984785;28;20066;-73
2021/12/16 10:12:53;;;;;;;17.48;11.80;;;8.70;79.50;;;;;;4996074;28;20409;-73
2021/12/16 10:18:23;;;;;;;14.63;12.25;;;8.80;79.50;;;;;;4996448;28;20057;-73
2021/12/16 10:20:56;;;;;;;13.60;11.07;;;8.70;79.40;;;;;;4981529;28;20137;-74
2021/12/16 10:23:26;;;;;;;14.43;11.77;;;8.80;79.60;;;;;;4976753;28;20039;-73
2021/12/16 10:25:56;;;;;;;12.15;10.38;;;8.80;79.60;;;;;;4977681;28;20051;-73
2021/12/16 10:28:29;;;;;;;14.90;11.68;;;8.90;79.70;;;;;;4976721;28;20379;-73
2021/12/16 10:31:02;;;;;;;14.18;11.57;;;8.90;79.70;;;;;;4985610;28;20046;-75
2021/12/16 10:33:39;;;;;;;13.48;11.40;;;8.90;79.70;;;;;;4995797;28;20057;-75
2021/12/16 10:36:11;;;;;;;14.95;11.75;;;9.00;79.80;;;;;;4987146;28;20038;-75
2021/12/16 10:38:41;;;;;;;15.07;11.15;;;9.00;79.80;;;;;;4976470;28;20126;-75
2021/12/16 10:41:09;;;;;;;15.80;11.85;;;9.00;79.70;;;;;;4969080;28;20133;-73
2021/12/16 10:43:37;;;;;;;15.13;11.85;;;9.10;79.70;;;;;;4995691;28;20085;-72
2021/12/16 10:46:13;;;;;;;14.82;10.90;;;9.10;79.80;;;;;;4994054;28;20521;-73
2021/12/16 10:48:44;;;;;;;16.40;12.23;;;9.10;79.70;;;;;;4995921;28;20084;-73
2021/12/16 10:51:24;;;;;;;16.17;12.40;;;9.10;79.70;;;;;;4985894;28;20105;-72
2021/12/16 10:53:49;;;;;;;13.27;10.75;;;9.20;79.70;;;;;;4974797;28;20051;-73
2021/12/16 10:56:17;;;;;;;20.35;12.10;;;9.20;79.70;;;;;;4977312;28;20046;-74
2021/12/16 10:58:55;;;;;;;12.95;11.27;;;9.20;79.70;;;;;;4976526;28;20074;-74
2021/12/16 11:01:39;;;;;;;13.35;11.60;;;9.30;79.70;;;;;;4984948;28;20180;-73
2021/12/16 11:04:10;;;;;;;13.98;11.35;;;9.30;79.60;;;;;;4994992;28;20042;-74
2021/12/16 11:06:40;;;;;;;13.90;11.25;;;9.30;79.50;;;;;;4985280;28;20046;-74
2021/12/16 11:09:27;;;;;;;12.85;10.93;;;9.30;79.50;;;;;;4975964;28;20051;-73
2021/12/16 11:12:15;;;;;;;14.52;11.60;;;9.30;79.40;;;;;;4987344;28;20050;-73
2021/12/16 11:14:50;;;;;;;14.60;11.38;;;9.40;79.30;;;;;;4995110;28;20130;-73
2021/12/16 11:17:18;;;;;;;12.20;10.30;;;9.30;79.20;;;;;;4993614;28;20042;-74
2021/12/16 11:19:51;;;;;;;12.63;10.25;;;9.40;79.30;;;;;;4994536;28;20093;-73
2021/12/16 11:22:32;;;;;;;13.02;10.50;;;9.40;79.30;;;;;;4975416;28;20402;-74
2021/12/16 11:25:12;;;;;;;12.38;10.15;;;9.40;79.30;;;;;;4995051;28;20038;-74
2021/12/16 11:27:38;;;;;;;13.38;10.40;;;9.40;79.20;;;;;;4993157;28;20494;-74
2021/12/16 11:30:30;;;;;;;13.70;10.75;;;9.40;79.10;;;;;;4994649;28;20038;-74
2021/12/16 11:33:16;;;;;;;12.32;10.27;;;9.40;79.10;;;;;;4994452;28;20414;-75
2021/12/16 11:35:48;;;;;;;12.68;10.65;;;9.40;79.20;;;;;;4990817;28;20469;-75
2021/12/16 11:38:23;;;;;;;12.63;10.90;;;9.40;79.20;;;;;;4958955;28;20054;-75
2021/12/16 11:41:00;;;;;;;14.45;11.82;;;9.50;79.30;;;;;;4958145;28;20065;-75
2021/12/16 11:43:33;;;;;;;13.80;11.45;;;9.50;79.20;;;;;;4993735;28;20042;-75
2021/12/16 11:46:00;;;;;;;13.57;11.07;;;9.50;79.10;;;;;;4977299;28;20054;-75
2021/12/16 11:48:29;;;;;;;19.02;13.02;;;9.50;79.10;;;;;;4993056;28;20554;-72
2021/12/16 11:51:08;;;;;;;16.42;12.50;;;9.50;79.10;;;;;;4994254;28;20084;-75
2021/12/16 11:53:42;;;;;;;17.15;13.00;;;9.50;79.10;;;;;;4958817;28;20483;-75
2021/12/16 11:56:10;;;;;;;14.02;11.25;;;9.60;79.10;;;;;;4975198;28;20426;-75
2021/12/16 11:58:36;;;;;;;17.13;11.68;;;9.60;79.10;;;;;;4976164;28;20042;-75
2021/12/16 12:01:16;;;;;;;15.88;11.80;;;9.60;79.10;;;;;;4975151;28;20042;-73
2021/12/16 12:03:41;;;;;;;14.55;11.25;;;9.60;79.10;;;;;;4992980;28;20049;-73
2021/12/16 12:06:18;;;;;;;16.48;12.48;;;9.60;79.10;;;;;;4982394;28;20047;-73
2021/12/16 12:08:47;;;;;;;17.95;13.57;;;9.60;79.10;;;;;;4976161;28;20047;-74
2021/12/16 12:11:17;;;;;;;19.67;13.50;;;9.70;79.20;;;;;;4957798;28;20058;-74
2021/12/16 12:13:49;;;;;;;16.98;11.98;;;9.70;79.20;;;;;;4991358;28;20046;-74
2021/12/16 12:16:26;;;;;;;15.80;11.23;;;9.70;79.20;;;;;;4994496;28;20132;-74
2021/12/16 12:18:57;;;;;;;17.60;13.13;;;9.70;79.20;;;;;;4975228;28;20121;-74
2021/12/16 12:21:32;;;;;;;18.00;12.60;;;9.80;79.30;;;;;;4978572;28;20053;-74
2021/12/16 12:24:12;;;;;;;18.02;13.77;;;9.80;79.20;;;;;;4974954;28;20380;-73
2021/12/16 12:26:43;;;;;;;16.92;12.27;;;9.80;79.20;;;;;;4991797;28;20046;-73
2021/12/16 12:29:20;;;;;;;16.55;12.48;;;9.80;79.20;;;;;;4976987;28;20509;-73
2021/12/16 12:31:50;;;;;;;15.52;11.02;;;9.80;79.30;;;;;;4978973;28;20500;-73
2021/12/16 12:34:17;;;;;;;16.77;12.30;;;9.80;79.20;;;;;;4996096;28;20054;-73
2021/12/16 12:36:45;;;;;;;15.10;11.07;;;9.80;79.20;;;;;;4994407;28;20050;-74
2021/12/16 12:39:15;;;;;;;15.40;11.48;;;9.90;79.20;;;;;;4998001;28;20136;-73
2021/12/16 12:41:42;;;;;;;23.08;13.10;;;9.90;79.10;;;;;;4978948;28;20386;-73
2021/12/16 12:44:08;;;;;;;17.25;11.98;;;9.90;79.00;;;;;;4980927;28;20125;-74
2021/12/16 12:46:42;;;;;;;17.15;13.60;;;9.90;78.90;;;;;;4966303;28;20130;-73
2021/12/16 12:49:11;;;;;;;16.58;12.63;;;9.90;79.00;;;;;;4978260;28;20043;-74
2021/12/16 12:51:49;;;;;;;16.88;12.25;;;9.90;78.90;;;;;;4990512;28;20097;-74
2021/12/16 12:54:23;;;;;;;21.13;14.07;;;10.00;79.00;;;;;;4998072;28;20046;-74
2021/12/16 12:56:51;;;;;;;19.50;13.48;;;10.00;79.00;;;;;;4983257;28;20053;-74
2021/12/16 12:59:17;;;;;;;19.45;14.23;;;10.00;79.00;;;;;;4978184;28;20046;-74
2021/12/16 13:01:53;;;;;;;19.65;13.07;;;10.00;79.10;;;;;;4979342;28;20109;-74
2021/12/16 13:04:21;;;;;;;17.85;12.15;;;10.00;79.20;;;;;;4983020;28;20037;-74
2021/12/16 13:07:06;;;;;;;15.85;12.00;;;10.00;79.10;;;;;;4984896;28;20082;-74
2021/12/16 13:09:49;;;;;;;17.83;13.13;;;10.00;79.10;;;;;;4978186;28;20170;-74
2021/12/16 13:12:27;;;;;;;17.95;13.35;;;10.00;79.00;;;;;;4978874;28;20054;-75
2021/12/16 13:15:02;;;;;;;16.92;12.07;;;10.00;79.40;;;;;;4978064;28;20082;-75
2021/12/16 13:29:04;;;;;;;20.30;13.88;;;10.10;78.80;;;;;;4937235;29;20502;-75
2021/12/16 13:31:40;;;;;;;17.75;11.98;;;10.00;78.80;;;;;;4936490;29;20062;-75
2021/12/16 13:34:47;;;;;;;18.60;12.35;;;10.00;78.80;;;;;;4937103;29;20058;-75
2021/12/16 13:37:24;;;;;;;16.33;11.88;;;10.00;78.70;;;;;;4935842;29;20056;-75
2021/12/16 13:39:54;;;;;;;18.33;12.45;;;10.10;78.90;;;;;;4921357;29;20062;-75
2021/12/16 13:42:20;;;;;;;17.05;12.45;;;10.10;78.80;;;;;;4935508;29;20047;-75
2021/12/16 13:45:02;;;;;;;16.77;12.45;;;10.10;78.70;;;;;;4936935;29;20055;-75
2021/12/16 14:10:03;;;;;;;18.42;13.50;;;10.10;78.60;;;;;;4984516;28;20047;-80
2021/12/16 14:15:24;;;;;;;19.83;12.82;;;10.00;78.60;;;;;;4976735;28;20490;-79
2021/12/16 14:18:01;;;;;;;18.67;12.50;;;10.00;78.60;;;;;;4988877;28;20054;-80
2021/12/16 14:24:00;;;;;;;17.90;12.23;;;10.00;78.70;;;;;;4974933;28;20130;-80
2021/12/16 14:35:00;;;;;;;20.88;13.00;;;10.00;78.70;;;;;;4972602;28;20057;-80
2021/12/16 14:43:37;;;;;;;31.10;15.07;;;10.00;78.70;;;;;;4921488;29;20055;-80
2021/12/16 14:45:57;;;;;;;24.02;13.60;;;10.00;78.70;;;;;;4922620;29;20103;-79
2021/12/16 14:48:28;;;;;;;21.27;12.75;;;10.00;78.80;;;;;;4907349;29;20055;-80
2021/12/16 14:50:59;;;;;;;22.55;12.63;;;10.00;78.80;;;;;;4931086;29;20514;-80
2021/12/16 14:53:44;;;;;;;21.25;12.52;;;10.00;78.80;;;;;;4926796;29;20048;-80
2021/12/16 14:56:29;;;;;;;23.05;13.02;;;10.00;78.80;;;;;;4929270;29;20090;-79
2021/12/16 14:59:02;;;;;;;21.52;12.95;;;10.00;78.80;;;;;;4926144;29;20056;-80
2021/12/16 15:01:34;;;;;;;20.90;13.68;;;10.00;78.80;;;;;;4930514;29;20191;-80
2021/12/16 15:04:01;;;;;;;24.77;13.65;;;10.00;78.80;;;;;;4930363;29;20062;-79
2021/12/16 15:06:39;;;;;;;20.55;13.65;;;10.00;78.80;;;;;;4929014;29;20055;-80
2021/12/16 15:09:17;;;;;;;21.88;12.15;;;10.00;78.80;;;;;;4923892;29;20048;-80
2021/12/16 15:14:40;;;;;;;20.23;13.10;;;10.00;78.70;;;;;;4973019;28;20093;-80
2021/12/16 15:17:41;;;;;;;23.77;15.02;;;9.90;78.70;;;;;;4972813;28;20042;-79
2021/12/16 15:35:41;;;;;;;18.02;12.15;;;9.90;78.80;;;;;;4961730;28;20078;-80
2021/12/16 15:39:53;;;;;;;19.80;13.40;;;9.90;78.80;;;;;;4976362;28;20153;-80
2021/12/16 15:45:13;;;;;;;20.88;13.38;;;9.90;78.70;;;;;;4985189;28;20085;-81
2021/12/16 15:47:41;;;;;;;18.00;12.93;;;9.90;78.80;;;;;;4990750;28;20058;-81
2021/12/16 15:50:07;;;;;;;19.88;13.18;;;9.80;78.60;;;;;;4985792;28;20068;-80
2021/12/16 15:52:41;;;;;;;28.15;15.00;;;9.80;78.70;;;;;;4990712;28;20121;-80
2021/12/16 15:55:14;;;;;;;21.05;13.63;;;9.80;78.70;;;;;;4974804;28;20057;-81
2021/12/16 15:57:41;;;;;;;24.60;14.50;;;9.80;78.60;;;;;;4976731;28;20089;-81
2021/12/16 16:00:12;;;;;;;20.45;12.45;;;9.80;78.60;;;;;;4985225;28;20117;-81
2021/12/16 16:02:38;;;;;;;21.15;12.40;;;9.80;78.50;;;;;;4988541;28;20046;-81
2021/12/16 16:05:04;;;;;;;19.63;12.10;;;9.70;78.40;;;;;;4981453;28;20054;-80
2021/12/16 16:07:33;;;;;;;20.80;12.82;;;9.70;78.40;;;;;;4959388;28;20046;-81
2021/12/16 16:10:00;;;;;;;22.80;15.55;;;9.80;78.60;;;;;;4983647;28;20054;-80
2021/12/16 16:12:31;;;;;;;23.70;14.75;;;9.70;78.60;;;;;;4980391;28;20051;-81
2021/12/16 16:15:05;;;;;;;19.63;13.55;;;9.80;78.70;;;;;;4969649;28;20054;-81
2021/12/16 16:17:40;;;;;;;20.33;13.45;;;9.70;78.70;;;;;;4976198;28;20129;-81
2021/12/16 16:20:06;;;;;;;22.77;14.60;;;9.70;78.80;;;;;;4976103;28;20058;-81
2021/12/16 16:22:32;;;;;;;23.08;14.82;;;9.70;78.90;;;;;;4975116;28;20065;-81
2021/12/16 16:24:58;;;;;;;23.80;13.73;;;9.80;79.00;;;;;;4971546;28;20062;-81
2021/12/16 16:27:28;;;;;;;19.33;13.60;;;9.60;78.90;;;;;;4972828;28;20125;-81
2021/12/16 16:29:59;;;;;;;21.40;14.27;;;9.60;79.00;;;;;;4988416;28;20046;-81
2021/12/16 16:32:29;;;;;;;23.17;14.70;;;9.70;79.10;;;;;;4993590;28;20046;-81
2021/12/16 16:34:56;;;;;;;22.83;14.98;;;9.60;79.00;;;;;;4972112;28;20569;-80
2021/12/16 16:37:28;;;;;;;22.85;14.73;;;9.70;79.10;;;;;;4972993;28;20035;-81
2021/12/16 16:40:01;;;;;;;23.20;16.05;;;9.70;79.10;;;;;;4971199;28;20057;-81
2021/12/16 16:42:37;;;;;;;23.83;14.68;;;9.60;79.00;;;;;;4974332;28;20494;-80